createdAt,value
2018-07-22T00:01:14.103Z,15.23
2018-07-22T00:03:42.214Z,14.60
2018-07-22T00:06:11.043Z,14.83
2018-07-22T00:08:39.423Z,16.30
2018-07-22T00:11:07.698Z,15.40
2018-07-22T00:13:35.824Z,13.13
2018-07-22T00:16:04.303Z,13.53
2018-07-22T00:18:32.440Z,15.20
2018-07-22T00:21:00.612Z,15.70
2018-07-22T00:23:28.817Z,17.27
2018-07-22T00:25:56.830Z,14.20
2018-07-22T00:28:25.514Z,15.23
2018-07-22T00:30:53.768Z,15.20
2018-07-22T00:33:22.144Z,19.53
2018-07-22T00:35:50.364Z,16.37
2018-07-22T00:38:19.046Z,18.00
2018-07-22T00:40:48.048Z,16.90
2018-07-22T00:43:23.142Z,15.73
2018-07-22T00:45:51.350Z,17.57
2018-07-22T00:48:19.550Z,16.40
2018-07-22T00:50:47.910Z,16.70
2018-07-22T00:53:16.102Z,15.87
2018-07-22T00:55:44.204Z,18.53
2018-07-22T00:58:12.244Z,15.23
2018-07-22T01:00:40.402Z,14.70
2018-07-22T01:03:08.640Z,15.63
2018-07-22T01:05:36.822Z,16.13
2018-07-22T01:08:05.184Z,15.83
2018-07-22T01:10:33.386Z,16.60
2018-07-22T01:13:02.340Z,15.37
2018-07-22T01:15:30.504Z,18.47
2018-07-22T01:18:00.308Z,16.70
2018-07-22T01:20:28.821Z,15.53
2018-07-22T01:22:57.004Z,19.03
2018-07-22T01:25:25.916Z,16.93
2018-07-22T01:27:54.129Z,15.13
2018-07-22T01:30:22.324Z,18.33
2018-07-22T01:32:50.411Z,18.23
2018-07-22T01:35:18.702Z,17.17
2018-07-22T01:37:46.968Z,18.27
2018-07-22T01:40:15.090Z,15.20
2018-07-22T01:42:43.219Z,16.83
2018-07-22T01:45:11.505Z,18.40
2018-07-22T01:47:39.829Z,18.47
2018-07-22T01:50:08.434Z,16.77
2018-07-22T01:52:36.601Z,15.27
2018-07-22T01:55:06.203Z,17.33
2018-07-22T01:57:34.871Z,16.00
2018-07-22T02:00:03.621Z,14.83
2018-07-22T02:02:32.467Z,15.77
2018-07-22T02:05:00.915Z,16.03
2018-07-22T02:07:29.793Z,20.63
2018-07-22T02:09:58.970Z,16.90
2018-07-22T02:12:27.183Z,17.43
2018-07-22T02:14:55.842Z,16.30
2018-07-22T02:17:24.018Z,17.73
2018-07-22T02:19:52.727Z,21.23
2018-07-22T02:22:21.008Z,18.83
2018-07-22T02:24:50.138Z,21.10
2018-07-22T02:27:18.321Z,15.50
2018-07-22T02:29:47.363Z,16.20
2018-07-22T02:32:15.828Z,16.97
2018-07-22T02:34:44.048Z,17.47
2018-07-22T02:37:12.299Z,15.90
2018-07-22T02:39:41.696Z,21.33
2018-07-22T02:42:10.527Z,21.43
2018-07-22T02:44:39.592Z,19.03
2018-07-22T02:47:08.641Z,16.20
2018-07-22T02:49:36.667Z,19.47
2018-07-22T02:52:05.806Z,20.83
2018-07-22T02:54:33.936Z,18.50
2018-07-22T02:57:02.191Z,19.33
2018-07-22T02:59:30.445Z,16.50
2018-07-22T03:01:58.717Z,17.63
2018-07-22T03:04:26.960Z,17.63
2018-07-22T03:06:55.997Z,20.40
2018-07-22T03:09:24.636Z,15.23
2018-07-22T03:11:53.132Z,17.33
2018-07-22T03:14:21.392Z,17.80
2018-07-22T03:16:50.200Z,16.73
2018-07-22T03:19:18.885Z,16.57
2018-07-22T03:21:47.062Z,16.37
2018-07-22T03:24:16.003Z,17.23
2018-07-22T03:26:44.131Z,16.10
2018-07-22T03:29:13.340Z,16.80
2018-07-22T03:31:41.409Z,16.47
2018-07-22T03:34:09.518Z,20.63
2018-07-22T03:36:37.871Z,15.93
2018-07-22T03:39:07.524Z,18.87
2018-07-22T03:41:35.652Z,19.50
2018-07-22T03:44:03.767Z,16.57
2018-07-22T03:46:32.143Z,19.20
2018-07-22T03:49:00.338Z,17.77
2018-07-22T03:51:28.519Z,20.00
2018-07-22T03:53:57.159Z,16.43
2018-07-22T03:56:25.447Z,15.33
2018-07-22T03:58:54.452Z,16.33
2018-07-22T04:01:23.240Z,14.67
2018-07-22T04:03:51.454Z,20.03
2018-07-22T04:06:21.058Z,19.10
2018-07-22T04:08:50.942Z,18.03
2018-07-22T04:11:19.781Z,17.07
2018-07-22T04:13:48.064Z,19.43
2018-07-22T04:16:16.337Z,17.07
2018-07-22T04:18:51.221Z,18.77
2018-07-22T04:21:20.353Z,15.97
2018-07-22T04:23:49.662Z,19.60
2018-07-22T04:26:19.417Z,15.43
2018-07-22T04:28:47.622Z,16.37
2018-07-22T04:31:16.188Z,15.33
2018-07-22T04:33:45.087Z,18.03
2018-07-22T04:36:13.366Z,17.53
2018-07-22T04:38:41.450Z,18.17
2018-07-22T04:41:09.816Z,13.97
2018-07-22T04:43:38.040Z,15.67
2018-07-22T04:46:06.379Z,17.37
2018-07-22T04:48:34.826Z,16.43
2018-07-22T04:51:04.029Z,15.67
2018-07-22T04:53:32.282Z,16.10
2018-07-22T04:56:00.527Z,13.40
2018-07-22T04:58:28.726Z,15.90
2018-07-22T05:00:57.016Z,13.07
2018-07-22T05:03:25.232Z,16.70
2018-07-22T05:05:53.446Z,15.87
2018-07-22T05:08:22.092Z,15.50
2018-07-22T05:10:50.859Z,17.77
2018-07-22T05:13:19.686Z,16.20
2018-07-22T05:15:48.069Z,17.70
2018-07-22T05:18:16.319Z,15.10
2018-07-22T05:20:44.486Z,14.50
2018-07-22T05:23:12.683Z,14.77
2018-07-22T05:25:40.980Z,14.73
2018-07-22T05:28:09.188Z,15.73
2018-07-22T05:30:37.389Z,16.40
2018-07-22T05:33:05.847Z,14.50
2018-07-22T05:35:34.629Z,13.93
2018-07-22T05:38:02.924Z,13.63
2018-07-22T05:40:31.831Z,16.40
2018-07-22T05:43:00.147Z,17.73
2018-07-22T05:45:28.309Z,13.10
2018-07-22T05:47:56.531Z,15.27
2018-07-22T05:50:24.719Z,13.13
2018-07-22T05:52:53.079Z,14.87
2018-07-22T05:55:21.195Z,18.00
2018-07-22T05:57:50.178Z,12.00
2018-07-22T06:00:18.743Z,18.33
2018-07-22T06:02:47.881Z,12.03
2018-07-22T06:05:16.734Z,13.53
2018-07-22T06:07:44.924Z,14.03
2018-07-22T06:10:13.637Z,13.17
2018-07-22T06:12:41.895Z,13.83
2018-07-22T06:15:10.197Z,15.73
2018-07-22T06:17:38.564Z,11.80
2018-07-22T06:20:08.038Z,12.57
2018-07-22T06:22:37.548Z,12.57
2018-07-22T06:25:06.804Z,10.87
2018-07-22T06:27:34.854Z,12.03
2018-07-22T06:30:03.280Z,12.53
2018-07-22T06:32:31.527Z,12.20
2018-07-22T06:34:59.850Z,16.90
2018-07-22T06:37:28.037Z,11.23
2018-07-22T06:39:56.236Z,11.17
2018-07-22T06:42:24.788Z,13.40
2018-07-22T06:44:52.872Z,11.70
2018-07-22T06:47:21.050Z,13.10
2018-07-22T06:49:49.234Z,13.03
2018-07-22T06:52:17.432Z,12.97
2018-07-22T06:54:45.539Z,12.30
2018-07-22T06:57:13.814Z,12.63
2018-07-22T06:59:41.971Z,10.37
2018-07-22T07:02:11.530Z,11.00
2018-07-22T07:04:39.672Z,11.77
2018-07-22T07:07:08.185Z,11.73
2018-07-22T07:09:36.357Z,11.20
2018-07-22T07:12:04.612Z,9.87
2018-07-22T07:14:32.913Z,10.53
2018-07-22T07:17:01.121Z,9.57
2018-07-22T07:19:29.361Z,11.27
2018-07-22T07:21:57.620Z,10.90
2018-07-22T07:24:25.647Z,10.80
2018-07-22T07:26:53.915Z,9.87
2018-07-22T07:29:22.066Z,12.03
2018-07-22T07:31:50.250Z,8.67
2018-07-22T07:34:18.468Z,8.93
2018-07-22T07:36:46.704Z,9.50
2018-07-22T07:39:14.979Z,11.13
2018-07-22T07:41:44.092Z,9.77
2018-07-22T07:44:12.289Z,8.63
2018-07-22T07:46:40.528Z,7.77
2018-07-22T07:49:08.824Z,7.60
2018-07-22T07:51:37.161Z,7.10
2018-07-22T07:54:05.500Z,8.30
2018-07-22T07:56:33.574Z,7.63
2018-07-22T07:59:01.856Z,7.47
2018-07-22T08:01:30.052Z,6.33
2018-07-22T08:03:58.336Z,7.20
2018-07-22T08:06:26.457Z,5.63
2018-07-22T08:08:54.672Z,6.07
2018-07-22T08:11:23.089Z,5.43
2018-07-22T08:13:51.232Z,6.90
2018-07-22T08:16:19.452Z,7.40
2018-07-22T08:18:47.710Z,6.30
2018-07-22T08:21:15.856Z,7.30
2018-07-22T08:23:43.956Z,7.07
2018-07-22T08:26:12.170Z,7.80
2018-07-22T08:29:27.727Z,7.00
2018-07-22T08:31:56.501Z,7.77
2018-07-22T08:34:24.804Z,7.50
2018-07-22T08:36:52.932Z,6.77
2018-07-22T08:39:22.860Z,6.87
2018-07-22T08:41:51.833Z,6.63
2018-07-22T08:44:20.104Z,7.27
2018-07-22T08:46:48.812Z,7.33
2018-07-22T08:49:16.981Z,7.57
2018-07-22T08:51:45.650Z,7.60
2018-07-22T08:54:13.779Z,7.60
2018-07-22T08:56:41.987Z,7.03
2018-07-22T08:59:10.539Z,6.90
2018-07-22T09:01:38.882Z,7.23
2018-07-22T09:04:07.129Z,8.67
2018-07-22T09:06:35.317Z,6.90
2018-07-22T09:09:06.979Z,8.27
2018-07-22T09:11:35.261Z,8.30
2018-07-22T09:14:03.821Z,9.60
2018-07-22T09:16:31.891Z,11.00
2018-07-22T09:19:00.133Z,7.23
2018-07-22T09:21:28.332Z,9.73
2018-07-22T09:23:56.620Z,9.60
2018-07-22T09:26:24.651Z,8.50
2018-07-22T09:28:52.845Z,9.80
2018-07-22T09:31:21.135Z,8.03
2018-07-22T09:33:49.396Z,9.20
2018-07-22T09:36:18.101Z,10.70
2018-07-22T09:38:46.190Z,6.97
2018-07-22T09:41:14.519Z,8.60
2018-07-22T09:43:42.713Z,6.40
2018-07-22T09:46:10.900Z,9.27
2018-07-22T09:48:39.240Z,8.80
2018-07-22T09:51:07.564Z,8.70
2018-07-22T09:53:36.822Z,6.50
2018-07-22T09:56:05.234Z,8.80
2018-07-22T09:58:33.681Z,8.87
2018-07-22T10:01:02.323Z,10.40
2018-07-22T10:03:31.236Z,9.57
2018-07-22T10:05:59.520Z,7.17
2018-07-22T10:08:28.812Z,7.60
2018-07-22T10:10:57.116Z,7.37
2018-07-22T10:13:25.621Z,8.10
2018-07-22T10:15:54.008Z,6.80
2018-07-22T10:18:22.286Z,8.67
2018-07-22T10:20:50.560Z,7.03
2018-07-22T10:23:25.641Z,8.23
2018-07-22T10:25:54.586Z,10.87
2018-07-22T10:28:22.829Z,7.70
2018-07-22T10:30:51.066Z,8.50
2018-07-22T10:33:20.196Z,10.50
2018-07-22T10:35:48.690Z,9.23
2018-07-22T10:38:18.244Z,7.60
2018-07-22T10:40:46.476Z,6.80
2018-07-22T10:43:15.067Z,8.23
2018-07-22T10:45:43.530Z,9.20
2018-07-22T10:48:11.799Z,10.23
2018-07-22T10:50:40.097Z,7.53
2018-07-22T10:53:08.371Z,9.27
2018-07-22T10:55:36.620Z,9.50
2018-07-22T10:58:05.363Z,8.10
2018-07-22T11:00:34.855Z,8.57
2018-07-22T11:03:06.040Z,8.83
2018-07-22T11:05:34.361Z,10.63
2018-07-22T11:08:02.595Z,10.53
2018-07-22T11:10:30.921Z,9.30
2018-07-22T11:12:59.177Z,10.50
2018-07-22T11:15:28.009Z,7.97
2018-07-22T11:17:56.179Z,9.53
2018-07-22T11:20:24.420Z,8.33
2018-07-22T11:22:53.234Z,12.10
2018-07-22T11:25:21.451Z,8.70
2018-07-22T11:27:49.501Z,7.93
2018-07-22T11:30:17.775Z,9.63
2018-07-22T11:32:46.633Z,7.73
2018-07-22T11:35:14.857Z,11.57
2018-07-22T11:37:43.315Z,11.40
2018-07-22T11:40:11.776Z,8.53
2018-07-22T11:42:40.393Z,9.70
2018-07-22T11:45:10.007Z,10.40
2018-07-22T11:47:38.173Z,10.03
2018-07-22T11:50:06.501Z,9.27
2018-07-22T11:52:34.721Z,7.77
2018-07-22T11:55:04.125Z,10.80
2018-07-22T11:57:32.367Z,9.20
2018-07-22T12:00:00.733Z,9.37
2018-07-22T12:02:28.957Z,10.83
2018-07-22T12:04:57.185Z,9.93
2018-07-22T12:07:25.401Z,11.83
2018-07-22T12:09:53.677Z,11.70
2018-07-22T12:12:21.925Z,9.53
2018-07-22T12:14:51.041Z,10.87
2018-07-22T12:17:19.252Z,8.57
2018-07-22T12:19:47.467Z,10.87
2018-07-22T12:22:16.415Z,10.10
2018-07-22T12:24:44.732Z,9.63
2018-07-22T12:27:13.033Z,10.67
2018-07-22T12:29:41.261Z,10.90
2018-07-22T12:32:09.412Z,8.50
2018-07-22T12:34:37.685Z,8.47
2018-07-22T12:37:05.866Z,8.73
2018-07-22T12:39:34.345Z,8.13
2018-07-22T12:42:03.008Z,7.22
2018-07-22T12:44:31.279Z,12.33
2018-07-22T12:46:59.493Z,11.85
2018-07-22T12:49:27.657Z,12.30
2018-07-22T12:51:55.941Z,8.98
2018-07-22T12:54:24.284Z,9.15
2018-07-22T12:56:52.597Z,8.53
2018-07-22T12:59:21.056Z,8.70
2018-07-22T13:01:49.668Z,9.10
2018-07-22T13:04:17.829Z,9.25
2018-07-22T13:06:46.293Z,7.00
2018-07-22T13:09:14.464Z,8.35
2018-07-22T13:11:42.674Z,7.03
2018-07-22T13:14:10.887Z,6.67
2018-07-22T13:16:39.408Z,6.25
2018-07-22T13:19:07.597Z,6.72
2018-07-22T13:21:35.951Z,7.12
2018-07-22T13:24:04.457Z,8.00
2018-07-22T13:26:33.949Z,8.83
2018-07-22T13:29:02.188Z,7.40
2018-07-22T13:31:30.639Z,10.48
2018-07-22T13:33:58.769Z,7.08
2018-07-22T13:36:26.974Z,7.50
2018-07-22T13:38:55.213Z,8.10
2018-07-22T13:41:23.804Z,6.67
2018-07-22T13:43:52.082Z,6.95
2018-07-22T13:46:20.440Z,7.50
2018-07-22T13:48:49.355Z,7.92
2018-07-22T13:51:17.655Z,7.17
2018-07-22T13:53:45.893Z,6.97
2018-07-22T13:56:14.131Z,8.80
2018-07-22T13:58:42.254Z,7.72
2018-07-22T14:01:10.394Z,7.25
2018-07-22T14:03:38.664Z,8.85
2018-07-22T14:06:06.880Z,7.37
2018-07-22T14:08:35.040Z,8.30
2018-07-22T14:11:03.422Z,8.83
2018-07-22T14:13:31.702Z,7.28
2018-07-22T14:15:59.974Z,7.30
2018-07-22T14:18:28.138Z,9.53
2018-07-22T14:20:56.414Z,6.97
2018-07-22T14:23:25.332Z,7.55
2018-07-22T14:25:53.602Z,7.62
2018-07-22T14:28:21.838Z,7.20
2018-07-22T14:30:50.778Z,6.72
2018-07-22T14:33:19.550Z,7.90
2018-07-22T14:35:47.742Z,7.92
2018-07-22T14:38:15.971Z,8.65
2018-07-22T14:40:44.112Z,7.47
2018-07-22T14:43:12.275Z,7.97
2018-07-22T14:45:40.794Z,9.53
2018-07-22T14:48:09.401Z,7.75
2018-07-22T14:50:37.595Z,7.78
2018-07-22T14:53:07.279Z,7.25
2018-07-22T14:55:36.155Z,9.20
2018-07-22T14:58:04.730Z,7.90
2018-07-22T15:00:32.923Z,7.72
2018-07-22T15:03:01.140Z,7.47
2018-07-22T15:05:29.383Z,7.92
2018-07-22T15:07:57.641Z,6.60
2018-07-22T15:10:25.740Z,7.50
2018-07-22T15:12:54.266Z,8.00
2018-07-22T15:15:22.472Z,8.58
2018-07-22T15:17:50.720Z,9.68
2018-07-22T15:20:18.965Z,8.58
2018-07-22T15:22:47.282Z,6.90
2018-07-22T15:25:15.494Z,8.33
2018-07-22T15:27:43.890Z,7.77
2018-07-22T15:30:12.082Z,9.10
2018-07-22T15:32:40.331Z,8.47
2018-07-22T15:35:08.678Z,7.90
2018-07-22T15:37:36.816Z,11.17
2018-07-22T15:40:05.285Z,6.73
2018-07-22T15:42:33.583Z,6.37
2018-07-22T15:45:01.821Z,7.20
2018-07-22T15:47:30.063Z,9.90
2018-07-22T15:49:59.133Z,7.90
2018-07-22T15:52:27.980Z,9.07
2018-07-22T15:54:56.289Z,7.50
2018-07-22T15:57:24.532Z,7.70
2018-07-22T15:59:52.743Z,9.30
2018-07-22T16:02:20.895Z,9.97
2018-07-22T16:04:49.970Z,7.60
2018-07-22T16:07:19.939Z,9.27
2018-07-22T16:09:48.750Z,10.57
2018-07-22T16:12:16.959Z,11.30
2018-07-22T16:14:45.270Z,7.43
2018-07-22T16:17:13.490Z,9.30
2018-07-22T16:19:41.553Z,8.40
2018-07-22T16:22:09.846Z,8.53
2018-07-22T16:24:37.892Z,7.20
2018-07-22T16:27:06.642Z,7.43
2018-07-22T16:29:34.966Z,7.50
2018-07-22T16:32:03.833Z,8.63
2018-07-22T16:34:32.189Z,9.27
2018-07-22T16:37:00.871Z,8.30
2018-07-22T16:39:30.045Z,8.83
2018-07-22T16:41:58.223Z,6.70
2018-07-22T16:44:27.034Z,7.97
2018-07-22T16:46:55.268Z,7.33
2018-07-22T16:49:23.528Z,7.40
2018-07-22T16:51:52.362Z,6.87
2018-07-22T16:54:20.614Z,9.37
2018-07-22T16:56:48.883Z,8.60
2018-07-22T16:59:17.160Z,9.47
2018-07-22T17:01:46.306Z,6.90
2018-07-22T17:04:14.532Z,10.00
2018-07-22T17:06:43.543Z,7.83
2018-07-22T17:09:11.840Z,7.70
2018-07-22T17:11:40.730Z,7.40
2018-07-22T17:14:09.519Z,8.63
2018-07-22T17:16:39.246Z,8.53
2018-07-22T17:19:07.671Z,8.13
2018-07-22T17:21:36.607Z,8.87
2018-07-22T17:24:05.317Z,11.20
2018-07-22T17:26:34.037Z,9.87
2018-07-22T17:29:02.981Z,8.80
2018-07-22T17:31:31.221Z,9.07
2018-07-22T17:33:59.386Z,8.37
2018-07-22T17:36:27.721Z,7.30
2018-07-22T17:38:55.918Z,7.93
2018-07-22T17:41:24.178Z,6.60
2018-07-22T17:43:52.327Z,6.50
2018-07-22T17:46:20.543Z,8.00
2018-07-22T17:48:49.283Z,8.23
2018-07-22T17:51:17.410Z,9.53
2018-07-22T17:53:46.225Z,9.37
2018-07-22T17:56:15.597Z,8.73
2018-07-22T17:58:44.570Z,8.70
2018-07-22T18:01:12.764Z,10.63
2018-07-22T18:03:41.084Z,9.00
2018-07-22T18:06:09.212Z,11.70
2018-07-22T18:08:38.006Z,10.97
2018-07-22T18:11:06.282Z,10.00
2018-07-22T18:13:34.486Z,8.73
2018-07-22T18:16:02.736Z,9.13
2018-07-22T18:18:30.901Z,10.03
2018-07-22T18:21:04.006Z,11.07
2018-07-22T18:23:32.501Z,9.50
2018-07-22T18:26:00.680Z,10.03
2018-07-22T18:28:28.971Z,11.20
2018-07-22T18:30:57.083Z,9.40
2018-07-22T18:33:25.254Z,9.17
2018-07-22T18:35:53.394Z,7.40
2018-07-22T18:38:21.921Z,9.10
2018-07-22T18:40:51.084Z,7.87
2018-07-22T18:43:19.361Z,8.67
2018-07-22T18:45:47.845Z,7.83
2018-07-22T18:48:16.790Z,9.00
2018-07-22T18:50:44.955Z,7.13
2018-07-22T18:53:13.378Z,7.10
2018-07-22T18:55:41.847Z,6.47
2018-07-22T18:58:10.265Z,7.87
2018-07-22T19:00:38.681Z,7.47
2018-07-22T19:03:06.836Z,7.07
2018-07-22T19:05:35.150Z,7.27
2018-07-22T19:08:04.470Z,9.93
2018-07-22T19:10:32.956Z,7.20
2018-07-22T19:13:01.248Z,8.00
2018-07-22T19:15:29.411Z,8.03
2018-07-22T19:17:57.573Z,7.67
2018-07-22T19:20:25.911Z,7.73
2018-07-22T19:22:54.484Z,11.10
2018-07-22T19:25:22.626Z,10.97
2018-07-22T19:27:50.211Z,9.30
2018-07-22T19:30:18.536Z,9.70
2018-07-22T19:32:46.801Z,9.40
2018-07-22T19:35:14.993Z,7.97
2018-07-22T19:37:43.150Z,9.07
2018-07-22T19:40:11.539Z,9.17
2018-07-22T19:42:39.723Z,9.13
2018-07-22T19:45:07.999Z,9.07
2018-07-22T19:47:36.211Z,9.70
2018-07-22T19:50:04.501Z,8.67
2018-07-22T19:52:32.614Z,9.87
2018-07-22T19:55:00.973Z,10.30
2018-07-22T19:57:29.356Z,11.97
2018-07-22T19:59:57.542Z,11.10
2018-07-22T20:02:25.700Z,10.60
2018-07-22T20:04:53.984Z,11.83
2018-07-22T20:07:22.096Z,10.97
2018-07-22T20:09:55.494Z,12.20
2018-07-22T20:12:24.055Z,12.53
2018-07-22T20:14:52.377Z,11.87
2018-07-22T20:17:25.570Z,11.50
2018-07-22T20:19:53.618Z,12.07
2018-07-22T20:22:22.595Z,11.60
2018-07-22T20:24:51.825Z,11.80
2018-07-22T20:27:20.135Z,11.03
2018-07-22T20:29:48.310Z,11.20
2018-07-22T20:32:17.332Z,11.40
2018-07-22T20:34:45.553Z,12.40
2018-07-22T20:37:14.044Z,11.13
2018-07-22T20:39:42.169Z,11.97
2018-07-22T20:42:10.355Z,14.27
2018-07-22T20:44:38.521Z,12.57
2018-07-22T20:47:06.770Z,12.10
2018-07-22T20:49:35.614Z,12.87
2018-07-22T20:52:04.433Z,13.43
2018-07-22T20:54:32.652Z,12.13
2018-07-22T20:57:00.824Z,13.67
2018-07-22T20:59:29.100Z,14.83
2018-07-22T21:01:57.321Z,20.47
2018-07-22T21:04:25.687Z,31.70
2018-07-22T21:06:53.777Z,31.17
2018-07-22T21:09:22.066Z,28.07
2018-07-22T21:13:07.132Z,27.37
2018-07-22T21:15:35.219Z,28.77
2018-07-22T21:18:03.398Z,33.97
2018-07-22T21:20:31.632Z,31.77
2018-07-22T21:23:00.397Z,22.13
2018-07-22T21:25:28.518Z,22.67
2018-07-22T21:27:56.669Z,19.50
2018-07-22T21:30:24.772Z,15.83
2018-07-22T21:32:52.994Z,13.87
2018-07-22T21:35:21.312Z,13.20
2018-07-22T21:37:49.486Z,13.40
2018-07-22T21:40:18.098Z,15.43
2018-07-22T21:42:46.292Z,12.50
2018-07-22T21:45:14.547Z,12.70
2018-07-22T21:47:43.368Z,13.27
2018-07-22T21:50:12.324Z,11.40
2018-07-22T21:52:40.684Z,10.83
2018-07-22T21:55:08.833Z,12.63
2018-07-22T21:57:37.392Z,12.07
2018-07-22T22:00:31.959Z,12.13
2018-07-22T22:03:01.671Z,12.23
2018-07-22T22:05:30.220Z,13.90
2018-07-22T22:07:58.834Z,12.17
2018-07-22T22:10:27.301Z,12.87
2018-07-22T22:12:55.646Z,13.20
2018-07-22T22:15:28.267Z,12.73
2018-07-22T22:17:57.807Z,13.73
2018-07-22T22:20:27.961Z,10.97
2018-07-22T22:22:56.341Z,12.80
2018-07-22T22:25:24.665Z,12.70
2018-07-22T22:27:53.240Z,13.80
2018-07-22T22:30:22.778Z,14.03
2018-07-22T22:32:52.125Z,14.73
2018-07-22T22:35:20.977Z,15.27
2018-07-22T22:37:52.804Z,13.30
2018-07-22T22:40:21.047Z,16.37
2018-07-22T22:42:49.107Z,14.37
2018-07-22T22:45:17.275Z,14.77
2018-07-22T22:47:46.811Z,14.60
2018-07-22T22:50:15.000Z,15.70
2018-07-22T22:52:43.921Z,17.87
2018-07-22T22:55:12.893Z,17.60
2018-07-22T22:57:57.300Z,16.30
2018-07-22T23:00:26.453Z,14.20
2018-07-22T23:02:54.637Z,15.50
2018-07-22T23:05:22.941Z,16.83
2018-07-22T23:07:51.964Z,16.13
2018-07-22T23:10:20.141Z,15.53
2018-07-22T23:12:48.159Z,16.10
2018-07-22T23:15:16.717Z,16.90
2018-07-22T23:17:45.677Z,17.40
2018-07-22T23:20:14.040Z,16.93
2018-07-22T23:22:42.909Z,18.00
2018-07-22T23:25:11.088Z,16.17
2018-07-22T23:27:40.332Z,18.73
2018-07-22T23:30:08.468Z,17.83
2018-07-22T23:32:36.625Z,18.20
2018-07-22T23:35:04.832Z,18.23
2018-07-22T23:37:32.990Z,17.50
2018-07-22T23:40:01.155Z,17.97
2018-07-22T23:42:29.271Z,19.83
2018-07-22T23:44:57.272Z,19.20
2018-07-22T23:47:25.458Z,19.03
2018-07-22T23:49:53.572Z,18.33
2018-07-22T23:52:21.993Z,18.30
2018-07-22T23:54:52.364Z,20.10
2018-07-22T23:57:20.988Z,15.83
2018-07-22T23:59:50.318Z,18.07
